sensor_id;sensor_type;location;lat;lon;timestamp;P1;durP1;ratioP1;P2;durP2;ratioP2
73672;SDS011;61972;19.480;-99.240;2023-03-14T00:00:11;14.10;;;4.87;;
73672;SDS011;61972;19.480;-99.240;2023-03-14T00:02:39;11.13;;;5.10;;
73672;SDS011;61972;19.480;-99.240;2023-03-14T00:05:06;12.85;;;5.10;;
73672;SDS011;61972;19.480;-99.240;2023-03-14T00:07:36;12.13;;;5.05;;
73672;SDS011;61972;19.480;-99.240;2023-03-14T00:10:04;9.45;;;4.80;;
73672;SDS011;61972;19.480;-99.240;2023-03-14T00:12:32;7.70;;;4.20;;
73672;SDS011;61972;19.480;-99.240;2023-03-14T00:14:58;9.57;;;4.38;;
73672;SDS011;61972;19.480;-99.240;2023-03-14T00:17:29;10.65;;;4.60;;
73672;SDS011;61972;19.480;-99.240;2023-03-14T00:19:56;14.13;;;4.18;;
73672;SDS011;61972;19.480;-99.240;2023-03-14T00:22:22;8.30;;;4.03;;
73672;SDS011;61972;19.480;-99.240;2023-03-14T00:24:48;8.77;;;4.23;;
73672;SDS011;61972;19.480;-99.240;2023-03-14T00:27:14;7.32;;;4.25;;
73672;SDS011;61972;19.480;-99.240;2023-03-14T00:29:42;8.70;;;4.25;;
73672;SDS011;61972;19.480;-99.240;2023-03-14T00:32:08;8.25;;;4.00;;
73672;SDS011;61972;19.480;-99.240;2023-03-14T00:34:34;7.68;;;4.20;;
73672;SDS011;61972;19.480;-99.240;2023-03-14T00:37:00;7.30;;;4.07;;
73672;SDS011;61972;19.480;-99.240;2023-03-14T00:39:26;7.70;;;4.00;;
73672;SDS011;61972;19.480;-99.240;2023-03-14T00:41:52;8.70;;;4.32;;
73672;SDS011;61972;19.480;-99.240;2023-03-14T00:44:18;7.68;;;4.25;;
73672;SDS011;61972;19.480;-99.240;2023-03-14T00:46:44;6.70;;;3.88;;
73672;SDS011;61972;19.480;-99.240;2023-03-14T00:49:10;7.27;;;4.00;;
73672;SDS011;61972;19.480;-99.240;2023-03-14T00:51:36;8.55;;;4.05;;
73672;SDS011;61972;19.480;-99.240;2023-03-14T00:54:02;6.53;;;4.10;;
73672;SDS011;61972;19.480;-99.240;2023-03-14T00:56:29;6.38;;;3.58;;
73672;SDS011;61972;19.480;-99.240;2023-03-14T00:58:56;7.30;;;4.13;;
73672;SDS011;61972;19.480;-99.240;2023-03-14T01:01:22;6.67;;;3.63;;
73672;SDS011;61972;19.480;-99.240;2023-03-14T01:03:52;7.47;;;3.80;;
73672;SDS011;61972;19.480;-99.240;2023-03-14T01:06:20;8.27;;;3.75;;
73672;SDS011;61972;19.480;-99.240;2023-03-14T01:08:48;6.40;;;3.92;;
73672;SDS011;61972;19.480;-99.240;2023-03-14T01:11:16;5.72;;;3.55;;
73672;SDS011;61972;19.480;-99.240;2023-03-14T01:13:44;6.17;;;3.60;;
73672;SDS011;61972;19.480;-99.240;2023-03-14T01:16:11;5.68;;;3.40;;
73672;SDS011;61972;19.480;-99.240;2023-03-14T01:18:38;6.68;;;3.50;;
73672;SDS011;61972;19.480;-99.240;2023-03-14T01:21:10;5.60;;;3.47;;
73672;SDS011;61972;19.480;-99.240;2023-03-14T01:23:38;10.30;;;3.88;;
73672;SDS011;61972;19.480;-99.240;2023-03-14T01:26:05;9.37;;;3.73;;
73672;SDS011;61972;19.480;-99.240;2023-03-14T01:28:34;7.53;;;3.65;;
73672;SDS011;61972;19.480;-99.240;2023-03-14T01:31:08;7.40;;;3.65;;
73672;SDS011;61972;19.480;-99.240;2023-03-14T01:33:35;9.02;;;4.75;;
73672;SDS011;61972;19.480;-99.240;2023-03-14T01:36:02;11.68;;;5.38;;
73672;SDS011;61972;19.480;-99.240;2023-03-14T01:38:29;9.53;;;4.70;;
73672;SDS011;61972;19.480;-99.240;2023-03-14T01:40:56;7.57;;;4.43;;
73672;SDS011;61972;19.480;-99.240;2023-03-14T01:43:22;9.55;;;5.20;;
73672;SDS011;61972;19.480;-99.240;2023-03-14T01:48:32;10.35;;;5.22;;
73672;SDS011;61972;19.480;-99.240;2023-03-14T01:51:29;9.00;;;4.80;;
73672;SDS011;61972;19.480;-99.240;2023-03-14T01:54:18;8.45;;;4.85;;
73672;SDS011;61972;19.480;-99.240;2023-03-14T01:56:50;9.23;;;4.85;;
73672;SDS011;61972;19.480;-99.240;2023-03-14T01:59:22;11.45;;;4.75;;
73672;SDS011;61972;19.480;-99.240;2023-03-14T02:01:49;13.40;;;5.00;;
73672;SDS011;61972;19.480;-99.240;2023-03-14T02:04:17;12.20;;;4.63;;
73672;SDS011;61972;19.480;-99.240;2023-03-14T02:06:47;9.88;;;4.40;;
73672;SDS011;61972;19.480;-99.240;2023-03-14T02:09:20;11.30;;;5.20;;
73672;SDS011;61972;19.480;-99.240;2023-03-14T02:11:47;11.35;;;5.30;;
73672;SDS011;61972;19.480;-99.240;2023-03-14T02:14:29;9.73;;;4.88;;
73672;SDS011;61972;19.480;-99.240;2023-03-14T02:16:58;11.00;;;5.67;;
73672;SDS011;61972;19.480;-99.240;2023-03-14T02:22:13;15.02;;;6.28;;
73672;SDS011;61972;19.480;-99.240;2023-03-14T02:27:15;10.02;;;6.78;;
73672;SDS011;61972;19.480;-99.240;2023-03-14T02:29:53;13.27;;;6.70;;
73672;SDS011;61972;19.480;-99.240;2023-03-14T02:32:25;12.20;;;6.75;;
73672;SDS011;61972;19.480;-99.240;2023-03-14T02:34:54;13.27;;;7.07;;
73672;SDS011;61972;19.480;-99.240;2023-03-14T02:37:24;14.63;;;7.40;;
73672;SDS011;61972;19.480;-99.240;2023-03-14T02:39:55;17.35;;;7.63;;
73672;SDS011;61972;19.480;-99.240;2023-03-14T02:42:22;16.47;;;7.30;;
73672;SDS011;61972;19.480;-99.240;2023-03-14T02:44:52;23.83;;;8.30;;
73672;SDS011;61972;19.480;-99.240;2023-03-14T02:47:22;20.25;;;8.35;;
73672;SDS011;61972;19.480;-99.240;2023-03-14T02:49:55;23.33;;;8.45;;
73672;SDS011;61972;19.480;-99.240;2023-03-14T02:52:36;19.02;;;7.82;;
73672;SDS011;61972;19.480;-99.240;2023-03-14T02:55:02;16.47;;;7.90;;
73672;SDS011;61972;19.480;-99.240;2023-03-14T02:57:28;16.40;;;7.55;;
73672;SDS011;61972;19.480;-99.240;2023-03-14T02:59:57;17.55;;;8.07;;
73672;SDS011;61972;19.480;-99.240;2023-03-14T03:02:29;17.88;;;7.95;;
73672;SDS011;61972;19.480;-99.240;2023-03-14T03:04:56;18.67;;;8.10;;
73672;SDS011;61972;19.480;-99.240;2023-03-14T03:07:22;20.10;;;7.93;;
73672;SDS011;61972;19.480;-99.240;2023-03-14T03:09:48;13.68;;;7.40;;
73672;SDS011;61972;19.480;-99.240;2023-03-14T03:12:14;14.77;;;7.55;;
73672;SDS011;61972;19.480;-99.240;2023-03-14T03:14:40;16.30;;;8.05;;
73672;SDS011;61972;19.480;-99.240;2023-03-14T03:17:06;16.85;;;8.02;;
73672;SDS011;61972;19.480;-99.240;2023-03-14T03:19:33;15.70;;;8.00;;
73672;SDS011;61972;19.480;-99.240;2023-03-14T03:21:59;18.50;;;8.27;;
73672;SDS011;61972;19.480;-99.240;2023-03-14T03:24:26;17.98;;;8.73;;
73672;SDS011;61972;19.480;-99.240;2023-03-14T03:26:52;15.00;;;8.40;;
73672;SDS011;61972;19.480;-99.240;2023-03-14T03:29:18;14.85;;;7.72;;
73672;SDS011;61972;19.480;-99.240;2023-03-14T03:31:45;16.10;;;8.50;;
73672;SDS011;61972;19.480;-99.240;2023-03-14T03:34:11;17.92;;;8.43;;
73672;SDS011;61972;19.480;-99.240;2023-03-14T03:36:38;15.98;;;9.30;;
73672;SDS011;61972;19.480;-99.240;2023-03-14T03:39:04;15.15;;;8.90;;
73672;SDS011;61972;19.480;-99.240;2023-03-14T03:41:31;13.13;;;8.48;;
73672;SDS011;61972;19.480;-99.240;2023-03-14T03:43:58;17.60;;;9.20;;
73672;SDS011;61972;19.480;-99.240;2023-03-14T03:46:24;15.50;;;9.50;;
73672;SDS011;61972;19.480;-99.240;2023-03-14T03:48:54;15.13;;;9.20;;
73672;SDS011;61972;19.480;-99.240;2023-03-14T03:51:20;15.60;;;9.27;;
73672;SDS011;61972;19.480;-99.240;2023-03-14T03:53:47;17.50;;;9.00;;
73672;SDS011;61972;19.480;-99.240;2023-03-14T03:56:13;12.73;;;8.17;;
73672;SDS011;61972;19.480;-99.240;2023-03-14T03:58:39;14.85;;;8.38;;
73672;SDS011;61972;19.480;-99.240;2023-03-14T04:01:05;13.05;;;7.47;;
73672;SDS011;61972;19.480;-99.240;2023-03-14T04:03:32;11.88;;;8.05;;
73672;SDS011;61972;19.480;-99.240;2023-03-14T04:06:05;13.25;;;8.02;;
73672;SDS011;61972;19.480;-99.240;2023-03-14T04:08:33;12.00;;;8.13;;
73672;SDS011;61972;19.480;-99.240;2023-03-14T04:10:59;11.00;;;7.07;;
73672;SDS011;61972;19.480;-99.240;2023-03-14T04:13:27;12.75;;;7.60;;
73672;SDS011;61972;19.480;-99.240;2023-03-14T04:15:53;13.98;;;6.88;;
73672;SDS011;61972;19.480;-99.240;2023-03-14T04:18:20;11.00;;;6.63;;
73672;SDS011;61972;19.480;-99.240;2023-03-14T04:20:51;10.93;;;6.20;;
73672;SDS011;61972;19.480;-99.240;2023-03-14T04:23:19;10.63;;;6.18;;
73672;SDS011;61972;19.480;-99.240;2023-03-14T04:25:46;8.20;;;5.95;;
73672;SDS011;61972;19.480;-99.240;2023-03-14T04:28:12;11.45;;;5.93;;
73672;SDS011;61972;19.480;-99.240;2023-03-14T04:30:38;10.35;;;5.40;;
73672;SDS011;61972;19.480;-99.240;2023-03-14T04:33:05;12.43;;;4.83;;
73672;SDS011;61972;19.480;-99.240;2023-03-14T04:35:34;7.28;;;4.68;;
73672;SDS011;61972;19.480;-99.240;2023-03-14T04:38:00;9.85;;;5.03;;
73672;SDS011;61972;19.480;-99.240;2023-03-14T04:40:26;7.85;;;4.75;;
73672;SDS011;61972;19.480;-99.240;2023-03-14T04:42:52;6.70;;;4.63;;
73672;SDS011;61972;19.480;-99.240;2023-03-14T04:45:18;11.07;;;4.87;;
73672;SDS011;61972;19.480;-99.240;2023-03-14T04:47:44;8.32;;;4.75;;
73672;SDS011;61972;19.480;-99.240;2023-03-14T04:50:10;8.93;;;4.40;;
73672;SDS011;61972;19.480;-99.240;2023-03-14T04:52:37;8.25;;;4.70;;
73672;SDS011;61972;19.480;-99.240;2023-03-14T04:55:03;7.28;;;4.45;;
73672;SDS011;61972;19.480;-99.240;2023-03-14T04:57:29;7.83;;;4.67;;
73672;SDS011;61972;19.480;-99.240;2023-03-14T04:59:55;7.03;;;4.45;;
73672;SDS011;61972;19.480;-99.240;2023-03-14T05:02:21;7.13;;;4.30;;
73672;SDS011;61972;19.480;-99.240;2023-03-14T05:04:47;6.95;;;4.00;;
73672;SDS011;61972;19.480;-99.240;2023-03-14T05:07:13;8.57;;;4.32;;
73672;SDS011;61972;19.480;-99.240;2023-03-14T05:09:39;10.53;;;3.70;;
73672;SDS011;61972;19.480;-99.240;2023-03-14T05:12:05;9.82;;;4.20;;
73672;SDS011;61972;19.480;-99.240;2023-03-14T05:14:32;7.85;;;4.15;;
73672;SDS011;61972;19.480;-99.240;2023-03-14T05:16:58;8.20;;;4.20;;
73672;SDS011;61972;19.480;-99.240;2023-03-14T05:19:24;15.10;;;4.88;;
73672;SDS011;61972;19.480;-99.240;2023-03-14T05:21:50;12.20;;;4.43;;
73672;SDS011;61972;19.480;-99.240;2023-03-14T05:24:16;14.52;;;5.07;;
73672;SDS011;61972;19.480;-99.240;2023-03-14T05:26:42;11.90;;;5.30;;
73672;SDS011;61972;19.480;-99.240;2023-03-14T05:29:08;8.90;;;3.90;;
73672;SDS011;61972;19.480;-99.240;2023-03-14T05:31:34;10.20;;;4.53;;
73672;SDS011;61972;19.480;-99.240;2023-03-14T05:34:00;9.53;;;3.87;;
73672;SDS011;61972;19.480;-99.240;2023-03-14T05:36:26;13.27;;;4.43;;
73672;SDS011;61972;19.480;-99.240;2023-03-14T05:38:52;9.02;;;4.15;;
73672;SDS011;61972;19.480;-99.240;2023-03-14T05:41:18;10.90;;;4.50;;
73672;SDS011;61972;19.480;-99.240;2023-03-14T05:43:44;9.85;;;4.60;;
73672;SDS011;61972;19.480;-99.240;2023-03-14T05:46:10;8.47;;;4.50;;
73672;SDS011;61972;19.480;-99.240;2023-03-14T05:48:36;9.35;;;4.50;;
73672;SDS011;61972;19.480;-99.240;2023-03-14T05:51:03;9.60;;;4.72;;
73672;SDS011;61972;19.480;-99.240;2023-03-14T05:53:29;8.85;;;4.65;;
73672;SDS011;61972;19.480;-99.240;2023-03-14T05:55:55;6.80;;;4.43;;
73672;SDS011;61972;19.480;-99.240;2023-03-14T05:58:22;6.57;;;3.87;;
73672;SDS011;61972;19.480;-99.240;2023-03-14T06:00:48;14.15;;;5.00;;
73672;SDS011;61972;19.480;-99.240;2023-03-14T06:03:15;10.82;;;5.30;;
73672;SDS011;61972;19.480;-99.240;2023-03-14T06:05:41;10.98;;;5.03;;
73672;SDS011;61972;19.480;-99.240;2023-03-14T06:08:07;9.05;;;4.97;;
73672;SDS011;61972;19.480;-99.240;2023-03-14T06:10:34;9.70;;;4.97;;
73672;SDS011;61972;19.480;-99.240;2023-03-14T06:13:01;9.55;;;4.70;;
73672;SDS011;61972;19.480;-99.240;2023-03-14T06:15:27;10.20;;;4.85;;
73672;SDS011;61972;19.480;-99.240;2023-03-14T06:17:54;11.88;;;4.32;;
73672;SDS011;61972;19.480;-99.240;2023-03-14T06:20:21;8.05;;;4.45;;
73672;SDS011;61972;19.480;-99.240;2023-03-14T06:22:47;8.07;;;4.03;;
73672;SDS011;61972;19.480;-99.240;2023-03-14T06:25:13;7.82;;;4.30;;
73672;SDS011;61972;19.480;-99.240;2023-03-14T06:27:39;6.65;;;4.00;;
73672;SDS011;61972;19.480;-99.240;2023-03-14T06:30:05;7.70;;;4.30;;
73672;SDS011;61972;19.480;-99.240;2023-03-14T06:32:32;7.20;;;4.10;;
73672;SDS011;61972;19.480;-99.240;2023-03-14T06:34:59;8.63;;;4.23;;
73672;SDS011;61972;19.480;-99.240;2023-03-14T06:37:29;8.32;;;4.00;;
73672;SDS011;61972;19.480;-99.240;2023-03-14T06:39:55;8.05;;;4.38;;
73672;SDS011;61972;19.480;-99.240;2023-03-14T06:42:21;6.13;;;3.83;;
73672;SDS011;61972;19.480;-99.240;2023-03-14T06:44:47;7.88;;;4.47;;
73672;SDS011;61972;19.480;-99.240;2023-03-14T06:47:14;7.13;;;4.00;;
73672;SDS011;61972;19.480;-99.240;2023-03-14T06:49:40;7.18;;;4.07;;
73672;SDS011;61972;19.480;-99.240;2023-03-14T06:52:06;6.93;;;4.15;;
73672;SDS011;61972;19.480;-99.240;2023-03-14T06:54:32;6.65;;;4.32;;
73672;SDS011;61972;19.480;-99.240;2023-03-14T06:56:58;6.72;;;3.90;;
73672;SDS011;61972;19.480;-99.240;2023-03-14T06:59:24;6.70;;;3.93;;
73672;SDS011;61972;19.480;-99.240;2023-03-14T07:01:50;6.88;;;4.10;;
73672;SDS011;61972;19.480;-99.240;2023-03-14T07:04:16;6.18;;;4.28;;
73672;SDS011;61972;19.480;-99.240;2023-03-14T07:06:43;8.77;;;4.43;;
73672;SDS011;61972;19.480;-99.240;2023-03-14T07:09:13;7.38;;;4.57;;
73672;SDS011;61972;19.480;-99.240;2023-03-14T07:11:42;6.93;;;4.87;;
73672;SDS011;61972;19.480;-99.240;2023-03-14T07:14:08;8.15;;;4.75;;
73672;SDS011;61972;19.480;-99.240;2023-03-14T07:16:34;8.18;;;4.85;;
73672;SDS011;61972;19.480;-99.240;2023-03-14T07:19:01;9.90;;;4.80;;
73672;SDS011;61972;19.480;-99.240;2023-03-14T07:21:28;8.68;;;4.95;;
73672;SDS011;61972;19.480;-99.240;2023-03-14T07:23:54;7.93;;;4.93;;
73672;SDS011;61972;19.480;-99.240;2023-03-14T07:26:21;9.05;;;5.10;;
73672;SDS011;61972;19.480;-99.240;2023-03-14T07:28:47;9.63;;;5.00;;
73672;SDS011;61972;19.480;-99.240;2023-03-14T07:31:13;8.85;;;5.60;;
73672;SDS011;61972;19.480;-99.240;2023-03-14T07:33:39;8.07;;;4.93;;
73672;SDS011;61972;19.480;-99.240;2023-03-14T07:36:05;9.03;;;5.40;;
73672;SDS011;61972;19.480;-99.240;2023-03-14T07:38:31;8.32;;;5.75;;
73672;SDS011;61972;19.480;-99.240;2023-03-14T07:40:58;9.70;;;5.88;;
73672;SDS011;61972;19.480;-99.240;2023-03-14T07:43:25;8.85;;;5.80;;
73672;SDS011;61972;19.480;-99.240;2023-03-14T07:45:51;10.25;;;5.72;;
73672;SDS011;61972;19.480;-99.240;2023-03-14T07:48:17;8.20;;;5.47;;
73672;SDS011;61972;19.480;-99.240;2023-03-14T07:50:43;8.38;;;5.35;;
73672;SDS011;61972;19.480;-99.240;2023-03-14T07:53:13;10.02;;;6.18;;
73672;SDS011;61972;19.480;-99.240;2023-03-14T07:55:39;8.25;;;5.63;;
73672;SDS011;61972;19.480;-99.240;2023-03-14T07:58:05;12.65;;;6.15;;
73672;SDS011;61972;19.480;-99.240;2023-03-14T08:00:31;8.80;;;5.80;;
73672;SDS011;61972;19.480;-99.240;2023-03-14T08:02:58;8.75;;;6.05;;
73672;SDS011;61972;19.480;-99.240;2023-03-14T08:05:24;10.02;;;6.38;;
73672;SDS011;61972;19.480;-99.240;2023-03-14T08:07:50;9.75;;;6.20;;
73672;SDS011;61972;19.480;-99.240;2023-03-14T08:10:16;9.30;;;6.13;;
73672;SDS011;61972;19.480;-99.240;2023-03-14T08:12:53;9.27;;;6.10;;
73672;SDS011;61972;19.480;-99.240;2023-03-14T08:15:21;9.85;;;6.20;;
73672;SDS011;61972;19.480;-99.240;2023-03-14T08:17:48;11.25;;;6.05;;
73672;SDS011;61972;19.480;-99.240;2023-03-14T08:20:16;8.10;;;5.75;;
73672;SDS011;61972;19.480;-99.240;2023-03-14T08:22:43;9.02;;;5.85;;
73672;SDS011;61972;19.480;-99.240;2023-03-14T08:25:10;8.60;;;6.00;;
73672;SDS011;61972;19.480;-99.240;2023-03-14T08:27:36;10.15;;;6.00;;
73672;SDS011;61972;19.480;-99.240;2023-03-14T08:30:04;8.77;;;6.05;;
73672;SDS011;61972;19.480;-99.240;2023-03-14T08:32:31;9.13;;;5.90;;
73672;SDS011;61972;19.480;-99.240;2023-03-14T08:34:58;7.97;;;5.90;;
73672;SDS011;61972;19.480;-99.240;2023-03-14T08:37:24;9.37;;;6.17;;
73672;SDS011;61972;19.480;-99.240;2023-03-14T08:39:50;7.95;;;5.70;;
73672;SDS011;61972;19.480;-99.240;2023-03-14T08:42:17;11.38;;;5.95;;
73672;SDS011;61972;19.480;-99.240;2023-03-14T08:44:43;10.25;;;5.63;;
73672;SDS011;61972;19.480;-99.240;2023-03-14T08:47:09;10.95;;;5.72;;
73672;SDS011;61972;19.480;-99.240;2023-03-14T08:49:36;8.10;;;5.80;;
73672;SDS011;61972;19.480;-99.240;2023-03-14T08:52:02;8.57;;;5.53;;
73672;SDS011;61972;19.480;-99.240;2023-03-14T08:54:29;10.57;;;5.70;;
73672;SDS011;61972;19.480;-99.240;2023-03-14T08:56:56;10.18;;;5.55;;
73672;SDS011;61972;19.480;-99.240;2023-03-14T08:59:23;7.05;;;5.22;;
73672;SDS011;61972;19.480;-99.240;2023-03-14T09:01:49;11.67;;;5.43;;
73672;SDS011;61972;19.480;-99.240;2023-03-14T09:04:16;9.77;;;5.68;;
73672;SDS011;61972;19.480;-99.240;2023-03-14T09:06:42;9.38;;;5.65;;
73672;SDS011;61972;19.480;-99.240;2023-03-14T09:09:08;8.30;;;5.50;;
73672;SDS011;61972;19.480;-99.240;2023-03-14T09:11:34;8.57;;;5.60;;
73672;SDS011;61972;19.480;-99.240;2023-03-14T09:14:01;8.47;;;5.57;;
73672;SDS011;61972;19.480;-99.240;2023-03-14T09:16:27;7.32;;;5.45;;
73672;SDS011;61972;19.480;-99.240;2023-03-14T09:18:53;8.63;;;5.45;;
73672;SDS011;61972;19.480;-99.240;2023-03-14T09:21:20;8.02;;;5.32;;
73672;SDS011;61972;19.480;-99.240;2023-03-14T09:23:46;7.90;;;5.32;;
73672;SDS011;61972;19.480;-99.240;2023-03-14T09:26:13;9.33;;;5.70;;
73672;SDS011;61972;19.480;-99.240;2023-03-14T09:28:39;9.80;;;5.90;;
73672;SDS011;61972;19.480;-99.240;2023-03-14T09:31:06;10.52;;;5.72;;
73672;SDS011;61972;19.480;-99.240;2023-03-14T09:33:35;7.93;;;5.50;;
73672;SDS011;61972;19.480;-99.240;2023-03-14T09:36:02;9.25;;;5.43;;
73672;SDS011;61972;19.480;-99.240;2023-03-14T09:38:29;8.73;;;5.47;;
73672;SDS011;61972;19.480;-99.240;2023-03-14T09:40:56;9.18;;;5.43;;
73672;SDS011;61972;19.480;-99.240;2023-03-14T09:43:24;10.07;;;5.43;;
73672;SDS011;61972;19.480;-99.240;2023-03-14T09:45:54;8.68;;;5.53;;
73672;SDS011;61972;19.480;-99.240;2023-03-14T09:48:21;7.97;;;5.60;;
73672;SDS011;61972;19.480;-99.240;2023-03-14T09:50:53;7.07;;;5.73;;
73672;SDS011;61972;19.480;-99.240;2023-03-14T09:53:21;7.60;;;5.20;;
73672;SDS011;61972;19.480;-99.240;2023-03-14T09:55:52;7.07;;;5.60;;
73672;SDS011;61972;19.480;-99.240;2023-03-14T09:58:21;10.05;;;5.47;;
73672;SDS011;61972;19.480;-99.240;2023-03-14T10:00:49;7.30;;;5.30;;
73672;SDS011;61972;19.480;-99.240;2023-03-14T10:03:31;8.07;;;4.83;;
73672;SDS011;61972;19.480;-99.240;2023-03-14T10:05:59;7.18;;;5.13;;
73672;SDS011;61972;19.480;-99.240;2023-03-14T10:08:25;8.25;;;4.97;;
73672;SDS011;61972;19.480;-99.240;2023-03-14T10:10:51;11.23;;;5.53;;
73672;SDS011;61972;19.480;-99.240;2023-03-14T10:13:20;11.15;;;5.78;;
73672;SDS011;61972;19.480;-99.240;2023-03-14T10:16:07;7.83;;;5.30;;
73672;SDS011;61972;19.480;-99.240;2023-03-14T10:18:34;9.52;;;5.57;;
73672;SDS011;61972;19.480;-99.240;2023-03-14T10:23:41;8.02;;;5.85;;
73672;SDS011;61972;19.480;-99.240;2023-03-14T10:26:15;8.02;;;5.40;;
73672;SDS011;61972;19.480;-99.240;2023-03-14T10:28:53;7.43;;;5.57;;
73672;SDS011;61972;19.480;-99.240;2023-03-14T10:31:26;7.05;;;5.38;;
73672;SDS011;61972;19.480;-99.240;2023-03-14T10:34:00;7.45;;;5.63;;
73672;SDS011;61972;19.480;-99.240;2023-03-14T10:36:29;9.25;;;5.50;;
73672;SDS011;61972;19.480;-99.240;2023-03-14T10:39:18;8.73;;;5.63;;
73672;SDS011;61972;19.480;-99.240;2023-03-14T10:42:10;7.93;;;5.50;;
73672;SDS011;61972;19.480;-99.240;2023-03-14T10:44:42;8.77;;;5.65;;
73672;SDS011;61972;19.480;-99.240;2023-03-14T10:47:15;8.32;;;5.50;;
73672;SDS011;61972;19.480;-99.240;2023-03-14T10:49:47;7.05;;;5.35;;
73672;SDS011;61972;19.480;-99.240;2023-03-14T10:52:15;7.28;;;5.70;;
73672;SDS011;61972;19.480;-99.240;2023-03-14T10:54:49;8.10;;;5.80;;
73672;SDS011;61972;19.480;-99.240;2023-03-14T10:57:22;8.88;;;5.88;;
73672;SDS011;61972;19.480;-99.240;2023-03-14T10:59:48;7.50;;;5.70;;
73672;SDS011;61972;19.480;-99.240;2023-03-14T11:07:43;9.53;;;5.20;;
73672;SDS011;61972;19.480;-99.240;2023-03-14T11:10:18;8.57;;;5.82;;
73672;SDS011;61972;19.480;-99.240;2023-03-14T11:15:30;9.38;;;5.72;;
73672;SDS011;61972;19.480;-99.240;2023-03-14T11:20:47;8.17;;;5.80;;
73672;SDS011;61972;19.480;-99.240;2023-03-14T11:23:27;8.77;;;5.50;;
73672;SDS011;61972;19.480;-99.240;2023-03-14T11:29:09;10.65;;;5.65;;
73672;SDS011;61972;19.480;-99.240;2023-03-14T11:31:38;13.50;;;5.65;;
73672;SDS011;61972;19.480;-99.240;2023-03-14T11:36:46;11.15;;;6.00;;
73672;SDS011;61972;19.480;-99.240;2023-03-14T11:39:17;10.32;;;5.85;;
73672;SDS011;61972;19.480;-99.240;2023-03-14T11:41:51;9.07;;;5.93;;
73672;SDS011;61972;19.480;-99.240;2023-03-14T11:44:29;8.88;;;6.10;;
73672;SDS011;61972;19.480;-99.240;2023-03-14T11:47:01;10.60;;;6.40;;
73672;SDS011;61972;19.480;-99.240;2023-03-14T11:49:34;10.35;;;5.70;;
73672;SDS011;61972;19.480;-99.240;2023-03-14T11:52:23;9.45;;;5.95;;
73672;SDS011;61972;19.480;-99.240;2023-03-14T11:57:31;9.95;;;6.47;;
73672;SDS011;61972;19.480;-99.240;2023-03-14T12:10:38;11.20;;;6.55;;
73672;SDS011;61972;19.480;-99.240;2023-03-14T12:13:17;11.17;;;6.30;;
73672;SDS011;61972;19.480;-99.240;2023-03-14T12:15:54;11.02;;;6.22;;
73672;SDS011;61972;19.480;-99.240;2023-03-14T12:18:29;10.18;;;6.40;;
73672;SDS011;61972;19.480;-99.240;2023-03-14T12:21:08;10.23;;;6.53;;
73672;SDS011;61972;19.480;-99.240;2023-03-14T12:23:39;11.35;;;6.65;;
73672;SDS011;61972;19.480;-99.240;2023-03-14T12:28:38;8.65;;;6.20;;
73672;SDS011;61972;19.480;-99.240;2023-03-14T12:34:25;9.32;;;6.15;;
73672;SDS011;61972;19.480;-99.240;2023-03-14T12:42:03;9.13;;;6.50;;
73672;SDS011;61972;19.480;-99.240;2023-03-14T12:46:58;10.95;;;6.38;;
73672;SDS011;61972;19.480;-99.240;2023-03-14T12:49:32;12.77;;;6.57;;
73672;SDS011;61972;19.480;-99.240;2023-03-14T12:52:10;10.53;;;6.53;;
73672;SDS011;61972;19.480;-99.240;2023-03-14T12:55:03;12.07;;;7.10;;
73672;SDS011;61972;19.480;-99.240;2023-03-14T13:00:19;12.60;;;6.70;;
73672;SDS011;61972;19.480;-99.240;2023-03-14T13:02:47;10.70;;;6.60;;
73672;SDS011;61972;19.480;-99.240;2023-03-14T13:10:23;13.32;;;6.93;;
73672;SDS011;61972;19.480;-99.240;2023-03-14T13:15:54;12.75;;;6.60;;
73672;SDS011;61972;19.480;-99.240;2023-03-14T13:18:26;12.73;;;7.47;;
73672;SDS011;61972;19.480;-99.240;2023-03-14T13:21:03;11.05;;;7.07;;
73672;SDS011;61972;19.480;-99.240;2023-03-14T13:23:40;12.07;;;6.93;;
73672;SDS011;61972;19.480;-99.240;2023-03-14T13:26:18;13.40;;;7.63;;
73672;SDS011;61972;19.480;-99.240;2023-03-14T13:28:51;12.95;;;6.90;;
73672;SDS011;61972;19.480;-99.240;2023-03-14T13:31:23;11.13;;;6.97;;
73672;SDS011;61972;19.480;-99.240;2023-03-14T13:33:59;12.35;;;6.90;;
73672;SDS011;61972;19.480;-99.240;2023-03-14T13:36:35;11.13;;;6.90;;
73672;SDS011;61972;19.480;-99.240;2023-03-14T13:39:02;15.73;;;7.47;;
73672;SDS011;61972;19.480;-99.240;2023-03-14T13:41:30;15.02;;;7.32;;
73672;SDS011;61972;19.480;-99.240;2023-03-14T13:43:58;10.47;;;6.93;;
73672;SDS011;61972;19.480;-99.240;2023-03-14T13:46:30;13.27;;;7.30;;
73672;SDS011;61972;19.480;-99.240;2023-03-14T13:49:04;10.68;;;7.28;;
73672;SDS011;61972;19.480;-99.240;2023-03-14T13:51:32;13.77;;;7.68;;
73672;SDS011;61972;19.480;-99.240;2023-03-14T13:53:59;11.30;;;7.13;;
73672;SDS011;61972;19.480;-99.240;2023-03-14T13:56:27;13.33;;;7.47;;
73672;SDS011;61972;19.480;-99.240;2023-03-14T13:58:55;12.27;;;7.60;;
73672;SDS011;61972;19.480;-99.240;2023-03-14T14:01:40;12.93;;;7.45;;
73672;SDS011;61972;19.480;-99.240;2023-03-14T14:04:07;11.43;;;7.32;;
73672;SDS011;61972;19.480;-99.240;2023-03-14T14:06:38;10.77;;;7.07;;
73672;SDS011;61972;19.480;-99.240;2023-03-14T14:09:12;12.83;;;6.87;;
73672;SDS011;61972;19.480;-99.240;2023-03-14T14:11:46;12.00;;;7.40;;
73672;SDS011;61972;19.480;-99.240;2023-03-14T14:14:21;11.88;;;7.53;;
73672;SDS011;61972;19.480;-99.240;2023-03-14T14:16:49;12.05;;;7.07;;
73672;SDS011;61972;19.480;-99.240;2023-03-14T14:19:17;11.73;;;7.18;;
73672;SDS011;61972;19.480;-99.240;2023-03-14T14:21:45;13.87;;;7.30;;
73672;SDS011;61972;19.480;-99.240;2023-03-14T14:24:12;11.55;;;7.45;;
73672;SDS011;61972;19.480;-99.240;2023-03-14T14:27:02;13.50;;;7.60;;
73672;SDS011;61972;19.480;-99.240;2023-03-14T14:29:33;9.50;;;6.80;;
73672;SDS011;61972;19.480;-99.240;2023-03-14T14:32:10;12.98;;;7.43;;
73672;SDS011;61972;19.480;-99.240;2023-03-14T14:34:39;12.67;;;7.37;;
73672;SDS011;61972;19.480;-99.240;2023-03-14T14:37:19;11.27;;;7.35;;
73672;SDS011;61972;19.480;-99.240;2023-03-14T14:39:46;11.73;;;6.95;;
73672;SDS011;61972;19.480;-99.240;2023-03-14T14:42:14;11.13;;;7.57;;
73672;SDS011;61972;19.480;-99.240;2023-03-14T14:44:42;14.13;;;7.55;;
73672;SDS011;61972;19.480;-99.240;2023-03-14T14:47:13;11.90;;;6.93;;
73672;SDS011;61972;19.480;-99.240;2023-03-14T14:49:40;11.05;;;7.72;;
73672;SDS011;61972;19.480;-99.240;2023-03-14T14:52:12;10.50;;;7.65;;
73672;SDS011;61972;19.480;-99.240;2023-03-14T14:54:45;11.63;;;7.57;;
73672;SDS011;61972;19.480;-99.240;2023-03-14T14:57:21;12.20;;;7.55;;
73672;SDS011;61972;19.480;-99.240;2023-03-14T14:59:50;12.47;;;7.40;;
73672;SDS011;61972;19.480;-99.240;2023-03-14T15:05:00;15.70;;;7.60;;
73672;SDS011;61972;19.480;-99.240;2023-03-14T15:07:27;11.48;;;8.10;;
73672;SDS011;61972;19.480;-99.240;2023-03-14T15:09:53;11.45;;;7.32;;
73672;SDS011;61972;19.480;-99.240;2023-03-14T15:12:19;10.50;;;7.97;;
73672;SDS011;61972;19.480;-99.240;2023-03-14T15:14:45;10.00;;;7.20;;
73672;SDS011;61972;19.480;-99.240;2023-03-14T15:17:12;12.50;;;7.50;;
73672;SDS011;61972;19.480;-99.240;2023-03-14T15:19:39;14.45;;;7.93;;
73672;SDS011;61972;19.480;-99.240;2023-03-14T15:22:08;12.38;;;7.70;;
73672;SDS011;61972;19.480;-99.240;2023-03-14T15:24:38;14.03;;;7.97;;
73672;SDS011;61972;19.480;-99.240;2023-03-14T15:27:05;15.05;;;8.05;;
73672;SDS011;61972;19.480;-99.240;2023-03-14T15:29:35;12.27;;;8.40;;
73672;SDS011;61972;19.480;-99.240;2023-03-14T15:32:03;13.07;;;8.15;;